Albion, Michigan
Current Conditions -  °F | °C
As of 9:14 PM on Monday 22 Dec 2014 (Local Time) from KRMY Reporting Station
Light Snow Light Snow  
Wind Chill: 26°   Ceiling: 3600
Heat Index: 34°   Visibility: 5mi
Dew Point: 32°   Wind: 10mph
Humidity: 93%   Direction: 110°ESE
Pressure: 29.81"   Gusts: NA
Location:  42.25°N, 84.75°W
Report Text: KRMY 230214Z AUTO 11009KT 090V150 5SM -SN SCT030 BKN036 OVC044 01/00 A2981 RMK AO2 P0001 T00100000
Loading
Personal Weather Stations






























Interactive Weather Map New forecast layout! Learn more

10-Day Weather Forecast

Advertisements
Track Severe Weather on mobile